Flamingo International Airport

Airport
ICAO code: 
TNCB
Summary
ICAO Region: 
CARSAM
Territory: 
Location: 
Bonaire, Leeward Antilles, Netherlands,
Coordinates: 
Aerial View: 
12° 8' 0.251" N, 68° 16' 36.732" W
Metar
Observation
TNCB 190455Z AUTO 09009KT 9999 NCD 26/21 Q1014
Station
Flamingo Airport, Bonaire
Date/Time
2022-01-19 04:55:00
Wind direction
90°
Wind speed
09 kts
Lowest cloud amount
no clouds detected
Temperature
26°C
Dew point
21°C
Humidity
74%
QNH
1014 hPa
Weather condition
n/a

Description

Flamingo International Airport or Bonaire International Airport serves the island of Bonaire, part of the Leeward Antilles, Caribbean. (Netherlands)

Climatology

Tropical Savanna climate (Köppen climate classification Aw), rarely affected directly by tropical storms as it is on the southern fringe of the Atlantic/Caribbean Hurricane Belt.

Runways

Designator Length Width Surface Rops
10/28 2880 45 ASP Yes/Yes
Airport map: 
Aerial View: 

Accidents and Serious Incidents at or in the vicinity of TNCB

SKYbrary Partners:

Safety knowledge contributed by: